BIKF/KEF METAR and TAF weather

Enter ICAO airport designator
Station Type Date Time Source
BIKF METAR 2022/08/12 14:30 UTC NOAA

BIKF 121430Z 24010KT 210V270 9999 SCT016 BKN032 12/08 Q1011


Station Type Date Time Source
BIKF Decoded METAR 2022/08/12 14:30 UTC NOAA

Keflavikurflugvollur, Iceland (BIKF) 63-58N 022-36W 54M
Aug 12, 2022 - 10:30 AM EDT / 2022.08.12 1430 UTC
Wind: from the WSW (240 degrees) at 12 MPH (10 KT) (direction variable):0
Visibility: greater than 7 mile(s):0
Sky conditions: mostly cloudy
Temperature: 53 F (12 C)
Dew Point: 46 F (8 C)
Relative Humidity: 76%
Pressure (altimeter): 29.85 in. Hg (1011 hPa)
ob: BIKF 121430Z 24010KT 210V270 9999 SCT016 BKN032 12/08 Q1011
cycle: 14

Station Type Date Time Source
BIKF TAF 2022/08/12 15:41 UTC NOAA

TAF BIKF 121334Z 1215/1315 27012KT 9999 SCT015 BKN035 TX13/1315Z TN07/1305Z
BECMG 1304/1306 19008KT

Example: see airport list